createdAt,value
2019-02-15T00:01:45.784Z,99.90
2019-02-15T00:04:15.536Z,99.90
2019-02-15T00:06:48.823Z,99.90
2019-02-15T00:09:18.560Z,99.90
2019-02-15T00:11:48.371Z,99.90
2019-02-15T00:14:18.412Z,99.90
2019-02-15T00:16:52.439Z,99.90
2019-02-15T00:19:43.567Z,99.90
2019-02-15T00:22:13.303Z,99.90
2019-02-15T00:24:43.068Z,99.90
2019-02-15T00:27:13.189Z,99.90
2019-02-15T00:29:42.967Z,99.90
2019-02-15T00:32:12.891Z,99.90
2019-02-15T00:34:44.124Z,99.90
2019-02-15T00:37:13.881Z,99.90
2019-02-15T00:39:43.637Z,99.90
2019-02-15T00:42:13.671Z,99.90
2019-02-15T00:44:43.435Z,99.90
2019-02-15T00:47:44.206Z,99.90
2019-02-15T00:50:32.365Z,99.90
2019-02-15T00:53:17.169Z,99.90
2019-02-15T00:56:02.841Z,99.90
2019-02-15T00:58:54.326Z,99.90
2019-02-15T01:01:46.383Z,99.90
2019-02-15T01:04:48.537Z,99.90
2019-02-15T01:07:37.566Z,99.90
2019-02-15T01:10:30.422Z,99.90
2019-02-15T01:13:09.811Z,99.90
2019-02-15T01:15:39.638Z,99.90
2019-02-15T01:18:09.474Z,99.90
2019-02-15T01:20:39.458Z,99.90
2019-02-15T01:23:09.139Z,99.90
2019-02-15T01:25:44.689Z,99.90
2019-02-15T01:28:36.404Z,99.90
2019-02-15T01:31:32.911Z,99.90
2019-02-15T01:34:21.238Z,99.90
2019-02-15T01:36:58.853Z,99.90
2019-02-15T01:39:42.996Z,99.90
2019-02-15T01:42:40.504Z,99.90
2019-02-15T01:45:14.886Z,99.90
2019-02-15T01:47:47.122Z,99.90
2019-02-15T01:50:17.192Z,99.90
2019-02-15T01:52:47.020Z,99.90
2019-02-15T01:55:16.740Z,99.90
2019-02-15T01:57:48.478Z,99.90
2019-02-15T02:00:19.369Z,99.90
2019-02-15T02:02:51.215Z,99.90
2019-02-15T02:05:21.204Z,99.90
2019-02-15T02:07:54.129Z,99.90
2019-02-15T02:10:23.808Z,99.90
2019-02-15T02:12:58.066Z,99.90
2019-02-15T02:15:27.842Z,99.90
2019-02-15T02:18:00.602Z,99.90
2019-02-15T02:20:30.630Z,99.90
2019-02-15T02:23:07.805Z,99.90
2019-02-15T02:25:37.548Z,99.90
2019-02-15T02:28:09.940Z,99.90
2019-02-15T02:30:39.656Z,99.90
2019-02-15T02:33:14.133Z,99.90
2019-02-15T02:35:44.465Z,99.90
2019-02-15T02:38:14.552Z,99.90
2019-02-15T02:40:44.357Z,99.90
2019-02-15T02:43:17.526Z,99.90
2019-02-15T02:45:47.164Z,99.90
2019-02-15T02:48:23.968Z,99.90
2019-02-15T02:50:53.889Z,99.90
2019-02-15T02:53:23.589Z,99.90
2019-02-15T02:55:53.297Z,99.90
2019-02-15T02:58:26.170Z,99.90
2019-02-15T03:00:55.899Z,99.90
2019-02-15T03:03:27.382Z,99.90
2019-02-15T03:05:57.566Z,99.90
2019-02-15T03:08:30.161Z,99.90
2019-02-15T03:10:59.887Z,99.90
2019-02-15T03:13:33.645Z,99.90
2019-02-15T03:16:03.361Z,99.90
2019-02-15T03:18:36.393Z,99.90
2019-02-15T03:21:06.463Z,99.90
2019-02-15T03:23:39.007Z,99.90
2019-02-15T03:26:08.643Z,99.90
2019-02-15T03:28:40.371Z,99.90
2019-02-15T03:31:10.097Z,99.90
2019-02-15T03:33:44.051Z,99.90
2019-02-15T03:36:21.718Z,99.90
2019-02-15T03:38:56.134Z,99.90
2019-02-15T03:41:27.321Z,99.90
2019-02-15T03:50:23.203Z,99.90
2019-02-15T03:53:04.487Z,99.90
2019-02-15T03:55:46.098Z,99.90
2019-02-15T03:58:27.171Z,99.90
2019-02-15T04:01:15.982Z,99.90
2019-02-15T04:04:04.713Z,99.90
2019-02-15T04:06:34.440Z,99.90
2019-02-15T04:09:08.230Z,99.90
2019-02-15T04:11:38.191Z,99.90
2019-02-15T04:14:10.861Z,99.90
2019-02-15T04:16:40.527Z,99.90
2019-02-15T04:19:13.432Z,99.90
2019-02-15T04:21:43.119Z,99.90
2019-02-15T04:24:31.813Z,99.90
2019-02-15T04:27:20.789Z,99.90
2019-02-15T04:33:09.038Z,99.90
2019-02-15T04:36:18.423Z,99.90
2019-02-15T04:39:07.336Z,99.90
2019-02-15T04:41:56.375Z,99.90
2019-02-15T04:44:46.755Z,99.90
2019-02-15T04:47:35.826Z,99.90
2019-02-15T04:50:43.756Z,99.90
2019-02-15T04:53:32.466Z,99.90
2019-02-15T04:56:02.346Z,99.90
2019-02-15T05:01:43.127Z,99.90
2019-02-15T05:04:24.682Z,99.90
2019-02-15T05:07:05.914Z,99.90
2019-02-15T05:09:46.774Z,99.90
2019-02-15T05:12:28.338Z,99.90
2019-02-15T05:15:10.152Z,99.90
2019-02-15T05:17:50.946Z,99.90
2019-02-15T05:20:31.856Z,99.90
2019-02-15T05:23:13.635Z,99.90
2019-02-15T05:25:54.542Z,99.90
2019-02-15T05:28:36.063Z,99.90
2019-02-15T05:31:17.494Z,99.90
2019-02-15T05:33:58.969Z,99.90
2019-02-15T05:36:40.299Z,99.90
2019-02-15T05:39:21.235Z,99.90
2019-02-15T05:42:10.031Z,99.90
2019-02-15T05:44:39.720Z,99.90
2019-02-15T05:47:09.840Z,99.90
2019-02-15T05:49:39.566Z,99.90
2019-02-15T05:52:09.324Z,99.90
2019-02-15T05:54:39.294Z,99.90
2019-02-15T05:57:09.714Z,99.90
2019-02-15T05:59:39.399Z,99.90
2019-02-15T06:02:14.175Z,99.90
2019-02-15T06:04:44.127Z,99.90
2019-02-15T06:07:16.203Z,99.90
2019-02-15T06:09:46.386Z,99.90
2019-02-15T06:12:18.966Z,99.90
2019-02-15T06:14:48.695Z,99.90
2019-02-15T06:17:22.650Z,99.90
2019-02-15T06:20:11.528Z,99.90
2019-02-15T06:23:00.231Z,99.90
2019-02-15T06:28:39.279Z,99.90
2019-02-15T06:31:09.040Z,99.90
2019-02-15T06:33:38.701Z,99.90
2019-02-15T06:36:46.400Z,99.90
2019-02-15T06:39:16.106Z,99.90
2019-02-15T06:41:46.146Z,99.90
2019-02-15T06:44:18.992Z,99.90
2019-02-15T06:46:48.691Z,99.90
2019-02-15T06:49:18.690Z,99.90
2019-02-15T06:51:48.571Z,99.90
2019-02-15T06:54:18.338Z,99.90
2019-02-15T06:56:48.278Z,99.90
2019-02-15T06:59:46.101Z,99.90
2019-02-15T07:02:44.962Z,99.90
2019-02-15T07:05:22.074Z,99.90
2019-02-15T07:07:52.110Z,99.90
2019-02-15T07:10:21.827Z,99.90
2019-02-15T07:12:51.622Z,99.90
2019-02-15T07:15:21.710Z,99.90
2019-02-15T07:17:52.595Z,99.90
2019-02-15T07:20:22.379Z,99.90
2019-02-15T07:22:57.562Z,99.90
2019-02-15T07:25:27.262Z,99.90
2019-02-15T07:28:00.467Z,99.90
2019-02-15T07:30:30.155Z,99.90
2019-02-15T07:33:03.657Z,99.90
2019-02-15T07:35:33.670Z,99.90
2019-02-15T07:38:07.933Z,99.90
2019-02-15T07:40:37.704Z,99.90
2019-02-15T07:43:11.270Z,99.90
2019-02-15T07:45:42.877Z,99.90
2019-02-15T07:48:14.404Z,99.90
2019-02-15T07:50:44.468Z,99.90
2019-02-15T07:53:17.103Z,99.90
2019-02-15T07:55:46.960Z,99.90
2019-02-15T07:58:19.643Z,99.90
2019-02-15T08:00:49.395Z,99.90
2019-02-15T08:03:22.353Z,99.90
2019-02-15T08:05:52.802Z,99.90
2019-02-15T08:08:24.454Z,99.90
2019-02-15T08:10:54.188Z,99.90
2019-02-15T08:13:30.810Z,99.90
2019-02-15T08:16:02.702Z,99.90
2019-02-15T08:18:32.192Z,99.90
2019-02-15T08:21:02.280Z,99.90
2019-02-15T08:23:32.031Z,99.90
2019-02-15T08:26:02.150Z,99.90
2019-02-15T08:28:35.777Z,99.90
2019-02-15T08:31:05.821Z,99.90
2019-02-15T08:33:36.145Z,99.90
2019-02-15T08:36:06.351Z,99.90
2019-02-15T08:38:41.134Z,99.90
2019-02-15T08:41:11.062Z,99.90
2019-02-15T08:43:42.010Z,99.90
2019-02-15T08:46:11.741Z,99.90
2019-02-15T08:48:46.441Z,99.90
2019-02-15T08:51:16.589Z,99.90
2019-02-15T08:53:47.175Z,99.90
2019-02-15T08:56:17.024Z,99.90
2019-02-15T08:59:04.745Z,99.90
2019-02-15T09:01:35.760Z,99.90
2019-02-15T09:04:05.584Z,99.90
2019-02-15T09:06:35.374Z,99.90
2019-02-15T09:09:06.835Z,99.90
2019-02-15T09:11:36.573Z,99.90
2019-02-15T09:14:06.880Z,99.90
2019-02-15T09:16:36.618Z,99.90
2019-02-15T09:19:06.361Z,99.90
2019-02-15T09:21:36.449Z,99.90
2019-02-15T09:24:07.793Z,99.50
2019-02-15T09:26:37.474Z,98.80
2019-02-15T09:29:13.471Z,97.50
2019-02-15T09:31:43.287Z,97.00
2019-02-15T09:34:16.684Z,94.30
2019-02-15T09:36:46.759Z,92.20
2019-02-15T09:39:18.383Z,88.90
2019-02-15T09:41:48.097Z,83.20
2019-02-15T09:44:20.608Z,77.70
2019-02-15T09:46:50.609Z,73.70
2019-02-15T09:49:39.589Z,80.40
2019-02-15T09:52:09.303Z,74.50
2019-02-15T09:54:58.121Z,71.60
2019-02-15T09:57:27.929Z,70.90
2019-02-15T09:59:57.963Z,68.70
2019-02-15T10:02:46.757Z,71.00
2019-02-15T10:05:17.019Z,67.20
2019-02-15T10:07:47.038Z,66.10
2019-02-15T10:10:16.954Z,65.20
2019-02-15T10:12:47.118Z,61.40
2019-02-15T10:15:17.007Z,60.70
2019-02-15T10:17:49.975Z,61.20
2019-02-15T10:20:20.269Z,62.20
2019-02-15T10:22:50.027Z,54.90
2019-02-15T10:25:20.000Z,54.20
2019-02-15T10:27:53.012Z,51.20
2019-02-15T10:30:22.773Z,57.20
2019-02-15T10:32:53.814Z,55.60
2019-02-15T10:35:25.736Z,50.00
2019-02-15T10:37:55.611Z,50.00
2019-02-15T10:40:25.405Z,51.60
2019-02-15T10:42:55.611Z,49.90
2019-02-15T10:45:25.343Z,51.80
2019-02-15T10:47:55.258Z,51.80
2019-02-15T10:50:25.626Z,48.40
2019-02-15T10:52:55.837Z,49.60
2019-02-15T10:55:25.672Z,52.20
2019-02-15T10:57:59.447Z,48.10
2019-02-15T11:00:32.461Z,50.40
2019-02-15T11:03:03.002Z,47.20
2019-02-15T11:05:33.130Z,48.00
2019-02-15T11:08:08.892Z,51.80
2019-02-15T11:10:38.644Z,46.20
2019-02-15T11:13:27.422Z,47.10
2019-02-15T11:15:57.140Z,50.40
2019-02-15T11:18:27.397Z,52.00
2019-02-15T11:24:15.759Z,47.50
2019-02-15T11:27:04.622Z,50.30
2019-02-15T11:36:06.980Z,51.40
2019-02-15T11:44:45.278Z,48.70
2019-02-15T11:47:15.367Z,49.60
2019-02-15T11:49:45.105Z,47.60
2019-02-15T11:52:14.873Z,47.10
2019-02-15T11:54:44.941Z,48.40
2019-02-15T11:57:14.799Z,50.90
2019-02-15T11:59:44.639Z,51.30
2019-02-15T12:02:14.775Z,50.70
2019-02-15T12:04:44.523Z,49.70
2019-02-15T12:07:14.320Z,48.60
2019-02-15T12:09:44.393Z,50.10
2019-02-15T12:12:14.168Z,50.40
2019-02-15T12:14:44.015Z,52.80
2019-02-15T12:17:15.157Z,50.00
2019-02-15T12:20:03.950Z,50.10
2019-02-15T12:22:33.982Z,49.00
2019-02-15T12:25:22.904Z,48.60
2019-02-15T12:27:53.051Z,49.20
2019-02-15T12:30:53.877Z,49.40
2019-02-15T12:33:13.565Z,50.10
2019-02-15T12:35:43.462Z,50.70
2019-02-15T12:38:13.263Z,51.50
2019-02-15T12:40:43.362Z,53.60
2019-02-15T12:43:13.075Z,55.10
2019-02-15T12:45:43.307Z,51.40
2019-02-15T12:48:13.785Z,51.30
2019-02-15T12:50:43.585Z,51.90
2019-02-15T12:53:32.397Z,53.70
2019-02-15T12:56:32.720Z,54.00
2019-02-15T12:58:52.584Z,53.10
2019-02-15T13:01:22.813Z,53.60
2019-02-15T13:04:30.516Z,54.10
2019-02-15T13:07:00.523Z,54.60
2019-02-15T13:09:30.280Z,55.10
2019-02-15T13:12:00.243Z,56.10
2019-02-15T13:14:49.031Z,56.10
2019-02-15T13:20:24.809Z,55.60
2019-02-15T13:22:54.624Z,57.90
2019-02-15T13:25:36.616Z,58.90
2019-02-15T13:28:00.356Z,60.00
2019-02-15T13:30:30.116Z,61.00
2019-02-15T13:32:59.879Z,58.90
2019-02-15T13:35:48.660Z,61.90
2019-02-15T13:38:18.718Z,58.80
2019-02-15T13:41:00.222Z,59.30
2019-02-15T13:43:19.979Z,58.30
2019-02-15T13:45:50.148Z,58.30
2019-02-15T13:48:19.943Z,60.40
2019-02-15T13:50:49.694Z,59.30
2019-02-15T13:53:19.813Z,60.50
2019-02-15T13:55:49.953Z,59.90
2019-02-15T13:58:19.829Z,60.80
2019-02-15T14:01:00.648Z,57.80
2019-02-15T14:03:42.514Z,57.50
2019-02-15T14:06:24.111Z,59.40
2019-02-15T14:09:05.800Z,58.40
2019-02-15T14:12:06.263Z,58.30
2019-02-15T14:17:52.623Z,61.50
2019-02-15T14:20:22.433Z,58.60
2019-02-15T14:23:11.425Z,63.70
2019-02-15T14:25:41.206Z,63.10
2019-02-15T14:28:13.356Z,63.70
2019-02-15T14:30:43.420Z,60.40
2019-02-15T14:33:13.249Z,59.80
2019-02-15T14:35:42.993Z,61.90
2019-02-15T14:38:12.750Z,62.10
2019-02-15T14:40:42.633Z,62.90
2019-02-15T14:46:40.734Z,62.50
2019-02-15T14:49:29.945Z,63.20
2019-02-15T14:51:59.672Z,64.30
2019-02-15T14:54:29.501Z,65.00
2019-02-15T14:57:18.604Z,67.00
2019-02-15T14:59:48.386Z,66.80
2019-02-15T15:02:37.212Z,67.50
2019-02-15T15:05:07.355Z,68.50
2019-02-15T15:07:38.450Z,68.20
2019-02-15T15:10:08.842Z,68.70
2019-02-15T15:12:38.981Z,69.10
2019-02-15T15:15:11.606Z,69.10
2019-02-15T15:18:10.807Z,69.90
2019-02-15T15:20:32.301Z,70.90
2019-02-15T15:23:02.171Z,71.90
2019-02-15T15:28:54.263Z,72.90
2019-02-15T15:31:43.135Z,74.70
2019-02-15T15:35:04.674Z,73.80
2019-02-15T15:37:41.299Z,74.40
2019-02-15T15:40:12.520Z,74.30
2019-02-15T15:42:42.508Z,76.00
2019-02-15T15:45:12.621Z,77.80
2019-02-15T15:47:45.425Z,79.60
2019-02-15T15:50:15.525Z,79.60
2019-02-15T15:52:48.173Z,80.00
2019-02-15T15:55:18.257Z,81.50
2019-02-15T15:57:49.680Z,80.00
2019-02-15T16:00:19.471Z,82.00
2019-02-15T16:02:53.751Z,81.00
2019-02-15T16:05:23.711Z,83.20
2019-02-15T16:07:56.886Z,82.90
2019-02-15T16:10:26.975Z,85.90
2019-02-15T16:13:00.332Z,87.20
2019-02-15T16:15:30.691Z,86.90
2019-02-15T16:18:03.147Z,90.00
2019-02-15T16:20:32.960Z,90.10
2019-02-15T16:23:07.790Z,91.00
2019-02-15T16:25:37.633Z,91.70
2019-02-15T16:28:12.498Z,93.00
2019-02-15T16:30:43.136Z,94.20
2019-02-15T16:33:14.640Z,95.00
2019-02-15T16:35:45.759Z,96.00
2019-02-15T16:38:17.503Z,96.90
2019-02-15T16:40:48.101Z,97.50
2019-02-15T16:43:20.527Z,98.40
2019-02-15T16:46:20.248Z,99.50
2019-02-15T16:55:27.225Z,99.90
2019-02-15T16:57:57.417Z,99.90
2019-02-15T17:00:46.745Z,99.90
2019-02-15T17:06:38.189Z,99.90
2019-02-15T17:09:16.525Z,99.90
2019-02-15T17:11:48.467Z,99.90
2019-02-15T17:14:37.722Z,99.90
2019-02-15T17:17:27.035Z,99.90
2019-02-15T17:20:17.622Z,99.90
2019-02-15T17:22:48.365Z,99.90
2019-02-15T17:25:56.393Z,99.90
2019-02-15T17:28:27.298Z,99.90
2019-02-15T17:31:16.447Z,99.90
2019-02-15T17:33:47.072Z,99.90
2019-02-15T17:36:17.801Z,99.90
2019-02-15T17:39:07.318Z,99.90
2019-02-15T17:45:04.268Z,99.90
2019-02-15T17:50:44.638Z,99.90
2019-02-15T17:53:33.727Z,99.90
2019-02-15T17:56:25.284Z,99.90
2019-02-15T18:02:16.631Z,99.90
2019-02-15T18:04:49.868Z,99.90
2019-02-15T18:07:31.504Z,99.90
2019-02-15T18:10:34.109Z,99.90
2019-02-15T18:12:54.792Z,99.90
2019-02-15T18:15:25.500Z,99.90
2019-02-15T18:18:14.740Z,99.90
2019-02-15T18:20:45.206Z,99.90
2019-02-15T18:26:34.617Z,99.90
2019-02-15T18:32:04.917Z,99.90
2019-02-15T18:34:35.532Z,99.90
2019-02-15T18:37:06.013Z,99.90
2019-02-15T18:39:36.590Z,99.90
2019-02-15T18:42:27.018Z,99.90
2019-02-15T18:44:57.650Z,99.90
2019-02-15T18:47:47.038Z,99.90
2019-02-15T18:50:36.361Z,99.90
2019-02-15T18:53:45.753Z,99.90
2019-02-15T18:56:34.996Z,99.90
2019-02-15T18:59:24.232Z,99.90
2019-02-15T19:01:54.752Z,99.90
2019-02-15T19:04:25.175Z,99.90
2019-02-15T19:07:14.510Z,97.80
2019-02-15T19:09:45.067Z,96.20
2019-02-15T19:12:15.722Z,94.30
2019-02-15T19:14:46.579Z,92.90
2019-02-15T19:17:17.099Z,92.20
2019-02-15T19:19:50.039Z,92.10
2019-02-15T19:22:20.562Z,92.00
2019-02-15T19:24:51.392Z,92.20
2019-02-15T19:27:22.381Z,91.70
2019-02-15T19:30:13.056Z,90.70
2019-02-15T19:32:44.184Z,91.00
2019-02-15T19:35:15.226Z,90.80
2019-02-15T19:37:45.860Z,92.60
2019-02-15T19:40:16.920Z,92.60
2019-02-15T19:42:48.810Z,94.40
2019-02-15T19:48:41.709Z,94.00
2019-02-15T19:51:37.446Z,93.80
2019-02-15T19:54:27.404Z,93.80
2019-02-15T19:59:53.461Z,94.30
2019-02-15T20:02:17.971Z,94.80
2019-02-15T20:07:47.206Z,95.10
2019-02-15T20:10:19.511Z,96.10
2019-02-15T20:12:49.527Z,96.00
2019-02-15T20:15:38.500Z,97.10
2019-02-15T20:18:08.733Z,97.40
2019-02-15T20:20:58.205Z,97.80
2019-02-15T20:23:28.397Z,98.80
2019-02-15T20:25:58.635Z,98.90
2019-02-15T20:28:47.533Z,99.70
2019-02-15T20:31:17.494Z,99.90
2019-02-15T20:34:06.425Z,99.90
2019-02-15T20:36:49.531Z,99.90
2019-02-15T20:39:11.895Z,99.90
2019-02-15T20:41:41.788Z,99.90
2019-02-15T20:44:11.753Z,99.90
2019-02-15T20:46:42.200Z,99.90
2019-02-15T20:49:12.106Z,99.90
2019-02-15T20:51:42.037Z,99.90
2019-02-15T20:54:11.981Z,99.90
2019-02-15T20:56:42.270Z,99.90
2019-02-15T20:59:12.438Z,99.90
2019-02-15T21:01:44.534Z,99.90
2019-02-15T21:04:14.691Z,99.90
2019-02-15T21:06:47.722Z,99.90
2019-02-15T21:09:17.726Z,99.90
2019-02-15T21:12:07.481Z,99.90
2019-02-15T21:14:56.344Z,99.90
2019-02-15T21:21:12.194Z,99.90
2019-02-15T21:23:42.477Z,99.90
2019-02-15T21:26:31.341Z,99.90
2019-02-15T21:29:01.912Z,99.90
2019-02-15T21:31:32.081Z,99.90
2019-02-15T21:34:21.291Z,99.90
2019-02-15T21:42:41.162Z,99.90
2019-02-15T21:45:30.045Z,99.90
2019-02-15T21:48:18.862Z,99.90
2019-02-15T21:51:27.938Z,99.90
2019-02-15T21:54:16.943Z,99.90
2019-02-15T21:56:46.745Z,99.90
2019-02-15T21:59:35.524Z,99.90
2019-02-15T22:02:05.396Z,99.90
2019-02-15T22:04:35.601Z,99.90
2019-02-15T22:07:05.708Z,99.90
2019-02-15T22:09:35.908Z,99.90
2019-02-15T22:12:26.422Z,99.90
2019-02-15T22:14:56.456Z,99.90
2019-02-15T22:17:45.201Z,99.90
2019-02-15T22:20:15.273Z,99.90
2019-02-15T22:28:55.864Z,99.90
2019-02-15T22:31:25.757Z,99.90
2019-02-15T22:33:55.740Z,99.90
2019-02-15T22:36:25.958Z,99.90
2019-02-15T22:38:55.751Z,99.90
2019-02-15T22:41:44.617Z,99.90
2019-02-15T22:44:14.838Z,99.90
2019-02-15T22:47:05.938Z,99.90
2019-02-15T22:49:54.711Z,99.90
2019-02-15T22:53:02.426Z,99.90
2019-02-15T22:55:32.916Z,99.90
2019-02-15T22:58:21.936Z,99.90
2019-02-15T23:01:12.454Z,99.90
2019-02-15T23:04:02.162Z,99.90
2019-02-15T23:07:09.997Z,99.90
2019-02-15T23:09:58.898Z,99.90
2019-02-15T23:12:29.027Z,99.90
2019-02-15T23:15:13.130Z,99.90
2019-02-15T23:17:46.173Z,99.90
2019-02-15T23:20:16.097Z,99.90
2019-02-15T23:22:45.891Z,99.90
2019-02-15T23:25:15.963Z,99.90
2019-02-15T23:27:46.010Z,99.90
2019-02-15T23:30:34.812Z,99.90
2019-02-15T23:33:23.626Z,99.90
2019-02-15T23:35:53.826Z,99.90
2019-02-15T23:38:23.630Z,99.90
2019-02-15T23:41:31.409Z,99.90
2019-02-15T23:44:21.584Z,99.90
2019-02-15T23:46:51.835Z,99.90
2019-02-15T23:49:40.724Z,99.90
2019-02-15T23:52:29.486Z,99.50
2019-02-15T23:55:37.253Z,99.10
2019-02-15T23:58:07.519Z,98.80
